Time;durP1;ratioP1;P1;durP2;ratioP2;P2;SDS_P1;SDS_P2;PMS_P1;PMS_P2;Temp;Humidity;BMP_temperature;BMP_pressure;BME280_temperature;BME280_humidity;BME280_pressure;Samples;Min_cycle;Max_cycle;Signal;HPM_P1;HPM_P2
2021/06/20 00:00:30;;;;;;;14.70;6.25;;;;;;;17.12;68.04;100203.88;5045570;28;20032;-63
2021/06/20 00:02:56;;;;;;;13.77;6.30;;;;;;;17.15;68.03;100219.50;5045608;28;20033;-63
2021/06/20 00:05:32;;;;;;;10.35;6.25;;;;;;;17.13;67.80;100218.69;5045560;28;20080;-63
2021/06/20 00:08:05;;;;;;;10.20;6.15;;;;;;;17.07;67.82;100218.03;5045362;28;20047;-64
2021/06/20 00:10:33;;;;;;;14.93;6.15;;;;;;;16.99;67.88;100246.28;5045208;28;20030;-65
2021/06/20 00:13:00;;;;;;;13.57;6.25;;;;;;;16.85;68.24;100260.75;5045333;28;20025;-64
2021/06/20 00:15:27;;;;;;;14.77;6.45;;;;;;;16.82;68.24;100263.50;5045498;28;20056;-64
2021/06/20 00:17:53;;;;;;;11.95;6.97;;;;;;;16.79;68.50;100213.81;5045347;28;20101;-64
2021/06/20 00:20:21;;;;;;;10.40;6.28;;;;;;;16.80;68.28;100226.03;5045347;28;20083;-64
2021/06/20 00:22:47;;;;;;;13.50;7.05;;;;;;;16.78;68.38;100233.09;5045426;28;20014;-64
2021/06/20 00:25:13;;;;;;;11.15;6.57;;;;;;;16.77;68.39;100215.66;5027141;28;20163;-65
2021/06/20 00:27:38;;;;;;;13.75;6.35;;;;;;;16.81;68.27;100206.75;5045450;28;20024;-64
2021/06/20 00:30:09;;;;;;;13.23;7.22;;;;;;;16.76;68.23;100198.19;5044885;28;20120;-64
2021/06/20 00:32:35;;;;;;;10.82;5.97;;;;;;;16.75;68.37;100195.63;5027198;28;20171;-64
2021/06/20 00:35:00;;;;;;;12.13;6.47;;;;;;;16.77;68.37;100202.53;5045067;28;20529;-64
2021/06/20 00:37:26;;;;;;;12.13;6.68;;;;;;;16.77;68.52;100199.94;5044904;28;20025;-64
2021/06/20 00:39:51;;;;;;;13.27;7.40;;;;;;;16.77;68.18;100194.69;5044605;28;20048;-64
2021/06/20 00:42:16;;;;;;;15.60;7.93;;;;;;;16.82;68.03;100197.13;5044828;28;20029;-65
2021/06/20 00:44:46;;;;;;;16.20;7.38;;;;;;;16.83;68.03;100196.22;5044882;28;20037;-65
2021/06/20 00:47:12;;;;;;;13.25;7.03;;;;;;;16.80;68.09;100197.19;5044824;28;20041;-65
2021/06/20 00:49:38;;;;;;;17.10;7.68;;;;;;;16.81;68.15;100211.13;5027005;28;20044;-65
2021/06/20 00:52:04;;;;;;;14.40;7.50;;;;;;;16.78;68.25;100212.13;5044422;28;20034;-64
2021/06/20 00:54:29;;;;;;;17.85;7.40;;;;;;;16.74;68.37;100205.28;5044421;28;20048;-65
2021/06/20 00:56:54;;;;;;;13.45;6.95;;;;;;;16.70;68.19;100203.66;5044725;28;20025;-64
2021/06/20 00:59:20;;;;;;;13.77;6.90;;;;;;;16.70;68.54;100199.28;5043251;28;20047;-64
2021/06/20 01:01:45;;;;;;;15.70;7.43;;;;;;;16.67;68.62;100203.78;5044295;28;20025;-65
2021/06/20 01:04:10;;;;;;;10.95;7.45;;;;;;;16.70;68.39;100208.91;5044600;28;20033;-65
2021/06/20 01:06:37;;;;;;;11.00;7.85;;;;;;;16.70;68.55;100208.91;5044700;28;20041;-65
2021/06/20 01:09:02;;;;;;;12.23;7.00;;;;;;;16.68;68.77;100215.97;5044245;28;20389;-71
2021/06/20 01:11:28;;;;;;;15.88;7.88;;;;;;;16.65;68.93;100216.09;5044363;28;20077;-71
2021/06/20 01:13:53;;;;;;;12.77;7.40;;;;;;;16.63;68.93;100216.16;5044452;28;20021;-71
2021/06/20 01:16:19;;;;;;;14.95;7.30;;;;;;;16.61;69.07;100210.13;5043268;28;20072;-71
2021/06/20 01:18:44;;;;;;;11.45;7.18;;;;;;;16.63;68.90;100218.75;5044558;28;20028;-71
2021/06/20 01:21:11;;;;;;;15.20;7.72;;;;;;;16.62;69.21;100219.69;5043753;28;20029;-71
2021/06/20 01:23:37;;;;;;;13.75;8.40;;;;;;;16.65;68.95;100223.94;5044272;28;20346;-71
2021/06/20 01:26:02;;;;;;;17.08;7.60;;;;;;;16.63;69.29;100229.25;5044310;28;20385;-71
2021/06/20 01:28:29;;;;;;;14.43;7.15;;;;;;;16.64;69.23;100230.13;5044242;28;20292;-71
2021/06/20 01:30:58;;;;;;;17.05;7.57;;;;;;;16.60;69.50;100232.84;5026115;28;20085;-71
2021/06/20 01:33:26;;;;;;;15.70;8.57;;;;;;;16.57;69.57;100246.06;5042588;28;20037;-71
2021/06/20 01:35:51;;;;;;;13.38;7.60;;;;;;;16.55;69.71;100245.25;5043904;28;20036;-72
2021/06/20 01:38:17;;;;;;;14.00;7.55;;;;;;;16.50;69.84;100241.97;5043909;28;20025;-72
2021/06/20 01:40:43;;;;;;;16.52;8.80;;;;;;;16.46;69.98;100233.34;5043853;28;20044;-70
2021/06/20 01:43:08;;;;;;;17.40;8.18;;;;;;;16.48;70.12;100239.38;5026073;28;20025;-71
2021/06/20 01:45:36;;;;;;;16.92;8.73;;;;;;;16.48;70.18;100239.38;5025929;28;20088;-71
2021/06/20 01:48:03;;;;;;;15.48;8.70;;;;;;;16.51;70.25;100235.81;5026256;28;20108;-71
2021/06/20 01:50:30;;;;;;;11.48;7.20;;;;;;;16.56;70.04;100239.13;5043865;28;20017;-70
2021/06/20 01:53:03;;;;;;;12.82;7.97;;;;;;;16.59;69.85;100241.63;5044047;28;20021;-71
2021/06/20 01:55:28;;;;;;;13.48;7.20;;;;;;;16.56;69.66;100246.97;5025868;28;20025;-70
2021/06/20 01:57:53;;;;;;;15.45;6.32;;;;;;;16.57;69.58;100240.81;5043452;28;20048;-70
2021/06/20 02:00:19;;;;;;;12.18;6.20;;;;;;;16.60;69.07;100237.22;5043874;28;20081;-70
2021/06/20 02:02:44;;;;;;;14.40;6.00;;;;;;;16.53;68.99;100228.75;5043925;28;20102;-70
2021/06/20 02:05:11;;;;;;;10.90;7.53;;;;;;;16.46;69.32;100225.50;5042264;28;20485;-70
2021/06/20 02:07:37;;;;;;;12.98;6.75;;;;;;;16.44;69.40;100216.81;5043669;28;20017;-70
2021/06/20 02:10:07;;;;;;;17.60;7.75;;;;;;;16.44;69.11;100216.81;5043479;28;20022;-70
2021/06/20 02:12:32;;;;;;;9.93;6.30;;;;;;;16.41;69.19;100216.94;5043745;28;20060;-70
2021/06/20 02:14:57;;;;;;;9.63;6.50;;;;;;;16.43;69.43;100216.88;5043701;28;20022;-71
2021/06/20 02:17:31;;;;;;;9.65;6.47;;;;;;;16.43;69.24;100211.63;5043603;28;20022;-71
2021/06/20 02:20:00;;;;;;;10.85;6.95;;;;;;;16.44;69.26;100197.63;5043537;28;20025;-71
2021/06/20 02:22:27;;;;;;;17.40;6.03;;;;;;;16.40;69.07;100191.66;5025668;28;20029;-71
2021/06/20 02:24:52;;;;;;;12.27;7.10;;;;;;;16.45;69.10;100201.97;5043745;28;20466;-71
2021/06/20 02:27:18;;;;;;;10.35;5.93;;;;;;;16.40;69.30;100191.66;5043412;28;20056;-72
2021/06/20 02:29:45;;;;;;;11.90;6.05;;;;;;;16.44;69.06;100190.63;5025539;28;20052;-72
2021/06/20 02:32:11;;;;;;;9.93;6.60;;;;;;;16.41;69.22;100190.72;5027724;28;20036;-71
2021/06/20 02:34:39;;;;;;;14.23;6.80;;;;;;;16.38;69.27;100187.38;5047388;28;20055;-72
2021/06/20 02:37:05;;;;;;;15.35;7.32;;;;;;;16.37;69.51;100186.53;5046288;28;20152;-72
2021/06/20 02:39:31;;;;;;;12.82;7.63;;;;;;;16.36;69.29;100182.19;5047395;28;20100;-71
2021/06/20 02:41:57;;;;;;;11.57;7.13;;;;;;;16.29;69.59;100170.22;5029652;28;20095;-71
2021/06/20 02:44:22;;;;;;;14.13;8.25;;;;;;;16.35;69.52;100178.72;5047433;28;20025;-72
2021/06/20 02:46:47;;;;;;;15.45;7.88;;;;;;;16.32;69.38;100168.38;5047274;28;20453;-71
2021/06/20 02:49:13;;;;;;;18.83;7.70;;;;;;;16.33;69.52;100175.31;5046068;28;20093;-72
2021/06/20 02:51:42;;;;;;;16.70;8.30;;;;;;;16.32;69.60;100167.50;5047220;28;20029;-71
2021/06/20 02:54:07;;;;;;;16.00;7.85;;;;;;;16.27;69.61;100169.41;5046841;28;20034;-71
2021/06/20 02:56:33;;;;;;;13.70;8.13;;;;;;;16.26;69.54;100168.59;5046978;28;20025;-71
2021/06/20 02:58:58;;;;;;;14.25;8.63;;;;;;;16.31;69.53;100171.88;5047124;28;20068;-71
2021/06/20 03:01:24;;;;;;;19.38;9.38;;;;;;;16.33;69.58;100170.06;5046952;28;20022;-71
2021/06/20 03:03:49;;;;;;;15.02;9.38;;;;;;;16.34;69.51;100166.53;5047161;28;20488;-71
2021/06/20 03:06:15;;;;;;;17.05;8.02;;;;;;;16.33;69.38;100167.44;5029179;28;20093;-72
2021/06/20 03:08:40;;;;;;;20.15;9.15;;;;;;;16.32;69.19;100176.22;5047002;28;20025;-71
2021/06/20 03:11:06;;;;;;;12.90;8.52;;;;;;;16.34;69.32;100178.78;5046932;28;20461;-71
2021/06/20 03:13:31;;;;;;;15.45;9.25;;;;;;;16.34;69.54;100182.25;5047065;28;20055;-71
2021/06/20 03:15:56;;;;;;;16.42;8.35;;;;;;;16.40;69.29;100175.06;5046924;28;20355;-71
2021/06/20 03:18:22;;;;;;;16.58;9.15;;;;;;;16.40;69.27;100165.47;5046870;28;20028;-72
2021/06/20 03:20:47;;;;;;;14.70;9.20;;;;;;;16.43;69.05;100162.72;5045425;28;20013;-72
2021/06/20 03:23:13;;;;;;;15.95;9.02;;;;;;;16.44;68.96;100164.41;5046423;28;20045;-71
2021/06/20 03:25:40;;;;;;;15.35;7.88;;;;;;;16.44;69.05;100163.56;5046285;28;20029;-71
2021/06/20 03:28:06;;;;;;;16.10;7.82;;;;;;;16.44;69.05;100160.94;5046354;28;20103;-71
2021/06/20 03:30:31;;;;;;;14.27;8.25;;;;;;;16.47;69.02;100160.81;5046133;28;20410;-71
2021/06/20 03:32:57;;;;;;;15.35;8.23;;;;;;;16.45;68.88;100170.53;5046533;28;20029;-71
2021/06/20 03:35:22;;;;;;;14.95;7.63;;;;;;;16.44;69.00;100168.78;5046316;28;20025;-71
2021/06/20 03:37:48;;;;;;;18.33;8.88;;;;;;;16.45;68.78;100167.91;5046365;28;20075;-71
2021/06/20 03:40:13;;;;;;;15.02;9.70;;;;;;;16.43;69.15;100167.09;5028267;28;20051;-71
2021/06/20 03:42:39;;;;;;;19.55;8.38;;;;;;;16.49;68.86;100156.38;5046298;28;20018;-71
2021/06/20 03:45:08;;;;;;;13.55;7.88;;;;;;;16.46;68.75;100143.41;5045738;28;20049;-71
2021/06/20 03:47:34;;;;;;;12.63;8.60;;;;;;;16.54;68.68;100153.59;5046045;28;20036;-71
2021/06/20 03:49:59;;;;;;;17.33;9.18;;;;;;;16.59;68.48;100154.28;5028305;28;20088;-71
2021/06/20 03:52:25;;;;;;;18.73;8.50;;;;;;;16.57;68.57;100153.47;5046248;28;20064;-71
2021/06/20 03:54:50;;;;;;;16.58;9.10;;;;;;;16.62;68.38;100150.69;5045818;28;20022;-71
2021/06/20 03:57:20;;;;;;;24.08;9.80;;;;;;;16.74;68.23;100163.34;5044579;28;20025;-72
2021/06/20 03:59:46;;;;;;;16.83;8.70;;;;;;;16.76;68.19;100169.34;5045854;28;20045;-71
2021/06/20 04:02:12;;;;;;;16.30;8.85;;;;;;;16.72;68.13;100163.38;5045922;28;20029;-71
2021/06/20 04:04:39;;;;;;;13.70;8.20;;;;;;;16.79;68.10;100171.88;5045857;28;20052;-71
2021/06/20 04:07:06;;;;;;;21.95;8.65;;;;;;;16.76;68.07;100173.78;5045910;28;20030;-72
2021/06/20 04:09:31;;;;;;;19.40;9.43;;;;;;;16.76;68.17;100177.22;5045641;28;20555;-72
2021/06/20 04:11:57;;;;;;;19.15;8.00;;;;;;;16.80;68.02;100184.09;5027754;28;20029;-72
2021/06/20 04:14:22;;;;;;;16.75;9.15;;;;;;;16.79;67.99;100203.31;5045652;28;20021;-72
2021/06/20 04:16:47;;;;;;;16.92;8.88;;;;;;;16.72;68.43;100205.31;5045652;28;20036;-71
2021/06/20 04:19:13;;;;;;;17.83;9.27;;;;;;;16.65;68.38;100195.13;5045428;28;20030;-71
2021/06/20 04:21:38;;;;;;;22.38;8.82;;;;;;;16.67;68.76;100198.53;5027722;28;20089;-71
2021/06/20 04:24:04;;;;;;;17.38;9.30;;;;;;;16.69;68.54;100194.09;5045294;28;20039;-72
2021/06/20 04:26:29;;;;;;;18.60;9.90;;;;;;;16.66;68.36;100183.75;5027630;28;20021;-70
2021/06/20 04:28:55;;;;;;;16.52;9.90;;;;;;;16.73;68.50;100185.22;5045376;28;20401;-70
2021/06/20 04:31:21;;;;;;;19.70;9.55;;;;;;;16.65;68.66;100172.41;5027350;28;20022;-70
2021/06/20 04:33:46;;;;;;;19.88;9.40;;;;;;;16.66;68.84;100175.88;5045280;28;20028;-70
2021/06/20 04:36:12;;;;;;;18.23;9.18;;;;;;;16.73;68.95;100182.59;5045351;28;20025;-71
2021/06/20 04:38:37;;;;;;;22.58;10.70;;;;;;;16.73;69.02;100193.06;5045193;28;20029;-71
2021/06/20 04:41:06;;;;;;;20.17;10.20;;;;;;;16.80;68.78;100198.94;5045058;28;20026;-71
2021/06/20 04:46:19;;;;;;;23.27;10.27;;;;;;;16.72;69.13;100197.44;5045170;28;20397;-72
2021/06/20 04:48:45;;;;;;;22.02;10.55;;;;;;;16.70;69.25;100193.19;5045238;28;20326;-71
2021/06/20 04:51:10;;;;;;;17.70;9.23;;;;;;;16.66;69.14;100183.75;5044926;28;20340;-72
2021/06/20 04:53:35;;;;;;;19.58;10.77;;;;;;;16.72;69.03;100192.22;5044931;28;20574;-71
2021/06/20 04:56:01;;;;;;;17.17;9.60;;;;;;;16.61;69.40;100199.63;5043909;28;20021;-72
2021/06/20 04:58:26;;;;;;;21.00;10.13;;;;;;;16.62;69.60;100213.56;5044634;28;20107;-71
2021/06/20 05:00:51;;;;;;;20.52;8.70;;;;;;;16.61;69.76;100194.41;5044596;28;20045;-71
2021/06/20 05:03:17;;;;;;;18.58;9.98;;;;;;;16.66;69.74;100199.47;5044755;28;20062;-71
2021/06/20 05:05:43;;;;;;;18.80;10.52;;;;;;;16.71;69.81;100198.38;5044734;28;20048;-71
2021/06/20 05:08:09;;;;;;;15.10;8.88;;;;;;;16.73;69.74;100206.19;5044917;28;20017;-71
2021/06/20 05:10:34;;;;;;;15.93;8.80;;;;;;;16.70;69.77;100198.44;5044338;28;20060;-71
2021/06/20 05:13:00;;;;;;;13.77;8.65;;;;;;;16.66;70.15;100196.84;5044570;28;20029;-71
2021/06/20 05:15:26;;;;;;;17.40;8.95;;;;;;;16.57;70.38;100204.13;5044235;28;20053;-71
2021/06/20 05:17:53;;;;;;;18.45;9.05;;;;;;;16.51;70.61;100206.13;5044481;28;20501;-71
2021/06/20 05:20:18;;;;;;;15.30;9.15;;;;;;;16.50;70.54;100213.16;5044347;28;20048;-72
2021/06/20 05:22:43;;;;;;;17.88;8.73;;;;;;;16.46;70.78;100194.06;5044298;28;20018;-71
2021/06/20 05:25:09;;;;;;;31.02;9.57;;;;;;;16.48;70.70;100188.75;5026362;28;20030;-72
2021/06/20 05:27:34;;;;;;;16.20;9.05;;;;;;;16.51;70.75;100188.63;5044315;28;20021;-71
2021/06/20 05:30:00;;;;;;;14.00;8.82;;;;;;;16.50;71.01;100184.31;5042679;28;20089;-72
2021/06/20 05:32:25;;;;;;;16.98;9.00;;;;;;;16.50;70.99;100179.09;5044202;28;20510;-72
2021/06/20 05:34:50;;;;;;;20.88;9.85;;;;;;;16.55;70.77;100165.81;5042842;28;20096;-71
2021/06/20 05:37:16;;;;;;;15.23;9.57;;;;;;;16.69;70.79;100175.75;5044383;28;20438;-72
2021/06/20 05:39:41;;;;;;;19.13;8.93;;;;;;;16.72;70.28;100171.25;5043836;28;20041;-72
2021/06/20 05:42:07;;;;;;;20.35;9.88;;;;;;;16.79;70.56;100164.00;5026271;28;20018;-72
2021/06/20 05:44:32;;;;;;;13.73;9.07;;;;;;;16.87;70.18;100161.06;5043898;28;20052;-72
2021/06/20 05:46:59;;;;;;;16.92;9.38;;;;;;;16.93;70.12;100162.63;5043952;28;20485;-72
2021/06/20 05:49:24;;;;;;;15.60;9.40;;;;;;;16.95;69.83;100156.41;5043873;28;20022;-72
2021/06/20 05:51:50;;;;;;;16.27;9.30;;;;;;;16.95;70.00;100139.81;5043993;28;20040;-72
2021/06/20 05:54:15;;;;;;;20.77;9.70;;;;;;;17.02;69.85;100143.91;5043742;28;20040;-71
2021/06/20 05:56:40;;;;;;;15.73;9.18;;;;;;;17.16;69.82;100150.38;5025991;28;20028;-72
2021/06/20 05:59:06;;;;;;;13.80;8.57;;;;;;;17.15;69.51;100146.94;5043448;28;20125;-72
2021/06/20 06:01:32;;;;;;;15.43;8.30;;;;;;;17.20;69.45;100150.19;5043867;28;20021;-72
2021/06/20 06:03:57;;;;;;;21.02;8.73;;;;;;;17.18;69.36;100138.06;5026102;28;20025;-72
2021/06/20 06:06:23;;;;;;;16.63;8.40;;;;;;;17.22;69.09;100137.03;5043593;28;20113;-73
2021/06/20 06:08:48;;;;;;;15.30;7.43;;;;;;;17.33;68.77;100140.06;5043789;28;20093;-73
2021/06/20 06:11:13;;;;;;;15.32;8.60;;;;;;;17.31;68.86;100131.41;5043563;28;20076;-71
2021/06/20 06:13:39;;;;;;;15.77;9.43;;;;;;;17.38;68.48;100120.66;5042277;28;20025;-72
2021/06/20 06:16:04;;;;;;;13.60;8.70;;;;;;;17.30;68.24;100131.47;5025931;28;20056;-71
2021/06/20 06:18:29;;;;;;;19.08;9.10;;;;;;;17.15;68.60;100144.31;5043551;28;20108;-72
2021/06/20 06:20:55;;;;;;;13.07;7.93;;;;;;;17.13;69.25;100126.91;5043452;28;20021;-72
2021/06/20 06:23:20;;;;;;;17.05;9.60;;;;;;;17.21;69.06;100130.94;5025294;28;20484;-72
2021/06/20 06:25:46;;;;;;;17.27;9.18;;;;;;;17.30;68.80;100124.44;5025617;28;20018;-72
2021/06/20 06:28:11;;;;;;;16.83;8.80;;;;;;;17.30;68.69;100126.25;5043491;28;20572;-72
2021/06/20 06:30:37;;;;;;;15.45;7.95;;;;;;;17.39;68.60;100143.34;5043396;28;20030;-72
2021/06/20 06:33:04;;;;;;;12.43;7.53;;;;;;;17.43;68.32;100127.41;5043508;28;20359;-72
2021/06/20 06:35:30;;;;;;;13.52;8.93;;;;;;;17.52;68.50;100131.44;5043240;28;20026;-72
2021/06/20 06:37:56;;;;;;;15.73;8.80;;;;;;;17.64;67.73;100137.06;5042050;28;20037;-71
2021/06/20 06:40:21;;;;;;;13.65;8.73;;;;;;;17.68;67.61;100125.53;5025425;28;20029;-71
2021/06/20 06:42:46;;;;;;;18.67;9.00;;;;;;;17.66;67.44;100122.13;5043239;28;20021;-71
2021/06/20 06:45:13;;;;;;;13.88;8.18;;;;;;;17.58;67.53;100133.81;5043394;28;20033;-72
2021/06/20 06:47:38;;;;;;;15.27;8.55;;;;;;;17.55;67.72;100125.19;5025359;28;20022;-73
2021/06/20 06:50:08;;;;;;;20.25;8.88;;;;;;;17.54;67.53;100123.50;5041848;28;20024;-72
2021/06/20 06:52:33;;;;;;;14.48;7.97;;;;;;;17.49;68.27;100120.22;5041852;28;20112;-73
2021/06/20 06:54:59;;;;;;;12.07;8.27;;;;;;;17.68;67.87;100122.91;5043069;28;20026;-72
2021/06/20 06:57:25;;;;;;;13.50;7.78;;;;;;;17.73;67.70;100131.44;5042784;28;20073;-72
2021/06/20 06:59:52;;;;;;;12.32;9.10;;;;;;;17.74;66.71;100133.16;5041391;28;20091;-73
2021/06/20 07:02:18;;;;;;;12.52;8.02;;;;;;;17.53;67.55;100138.38;5042957;28;20025;-73
2021/06/20 07:04:43;;;;;;;16.42;7.95;;;;;;;17.51;68.08;100131.50;5042974;28;20029;-73
2021/06/20 07:07:09;;;;;;;13.32;8.57;;;;;;;17.63;68.07;100127.50;5043064;28;20021;-73
2021/06/20 07:09:34;;;;;;;14.10;7.88;;;;;;;17.80;68.02;100118.88;5024996;28;20342;-73
2021/06/20 07:12:01;;;;;;;14.75;8.90;;;;;;;17.96;67.17;100119.06;5042983;28;20073;-72
2021/06/20 07:14:27;;;;;;;11.75;7.53;;;;;;;18.01;66.95;100109.22;5042802;28;20021;-72
2021/06/20 07:16:53;;;;;;;11.63;7.35;;;;;;;18.15;66.13;100108.63;5024981;28;20017;-73
2021/06/20 07:19:18;;;;;;;11.73;7.78;;;;;;;17.98;66.26;100103.25;5026993;28;20372;-73
2021/06/20 07:21:43;;;;;;;14.20;9.70;;;;;;;17.86;66.83;100094.16;5046468;28;20018;-72
2021/06/20 07:24:10;;;;;;;13.55;8.02;;;;;;;17.92;67.32;100099.97;5046211;28;20017;-72
2021/06/20 07:26:35;;;;;;;12.80;8.25;;;;;;;18.06;66.81;100099.38;5045087;28;20030;-72
2021/06/20 07:29:02;;;;;;;13.88;7.15;;;;;;;18.23;66.78;100096.94;5046425;28;20201;-72
2021/06/20 07:31:27;;;;;;;11.50;7.72;;;;;;;18.36;66.27;100100.69;5044775;28;20022;-72
2021/06/20 07:33:53;;;;;;;10.85;7.07;;;;;;;18.47;66.26;100102.81;5045999;28;20025;-72
2021/06/20 07:36:18;;;;;;;12.18;7.55;;;;;;;18.66;66.32;100087.03;5046091;28;20045;-73
2021/06/20 07:38:45;;;;;;;11.18;6.40;;;;;;;19.08;65.65;100081.56;5045746;28;20068;-72
2021/06/20 07:41:11;;;;;;;10.30;7.15;;;;;;;19.53;64.31;100079.34;5044566;28;20025;-72
2021/06/20 07:43:36;;;;;;;10.63;6.35;;;;;;;19.81;63.53;100077.91;5045858;28;20110;-72
2021/06/20 07:46:02;;;;;;;10.73;6.93;;;;;;;20.18;63.08;100074.25;5046065;28;20037;-73
2021/06/20 07:48:29;;;;;;;9.52;6.43;;;;;;;20.52;60.45;100066.28;5045754;28;20029;-72
2021/06/20 07:50:54;;;;;;;8.88;5.95;;;;;;;20.70;60.06;100069.69;5045760;28;20033;-71
2021/06/20 07:53:20;;;;;;;8.30;6.13;;;;;;;20.92;59.89;100053.50;5046051;28;20021;-73
2021/06/20 07:55:45;;;;;;;9.07;6.07;;;;;;;20.93;58.29;100044.63;5045479;28;20026;-71
2021/06/20 07:58:10;;;;;;;13.07;6.10;;;;;;;20.89;58.73;100042.25;5045665;28;20117;-72
2021/06/20 08:00:36;;;;;;;9.60;5.85;;;;;;;20.89;58.25;100036.97;5045623;28;20024;-73
2021/06/20 08:03:01;;;;;;;7.43;5.85;;;;;;;20.84;58.29;100034.59;5045799;28;20017;-72
2021/06/20 08:05:27;;;;;;;8.27;6.40;;;;;;;20.85;58.69;100044.19;5045491;28;20033;-73
2021/06/20 08:07:52;;;;;;;8.75;5.47;;;;;;;21.08;58.64;100042.03;5045819;28;20105;-72
2021/06/20 08:10:18;;;;;;;8.75;5.45;;;;;;;21.51;56.77;100043.91;5045252;28;20033;-73
2021/06/20 08:12:43;;;;;;;10.30;6.07;;;;;;;21.73;55.90;100039.09;5027629;28;20060;-74
2021/06/20 08:15:09;;;;;;;7.22;5.28;;;;;;;22.19;55.69;100038.06;5045307;28;20057;-73
2021/06/20 08:17:34;;;;;;;8.77;4.70;;;;;;;22.77;54.43;100024.69;5045502;28;20013;-72
2021/06/20 08:20:00;;;;;;;6.90;4.95;;;;;;;22.59;53.01;100024.09;5045232;28;20100;-72
2021/06/20 08:22:25;;;;;;;9.60;4.40;;;;;;;22.57;53.90;100035.69;5027412;28;20022;-73
2021/06/20 08:24:51;;;;;;;7.43;4.65;;;;;;;22.66;52.75;100021.91;5044968;28;20033;-73
2021/06/20 08:27:17;;;;;;;8.80;4.82;;;;;;;22.86;52.84;100009.97;5043985;28;20116;-71
2021/06/20 08:29:42;;;;;;;6.10;4.65;;;;;;;23.18;52.51;100006.09;5044994;28;20073;-71
2021/06/20 08:32:08;;;;;;;9.25;5.30;;;;;;;23.59;51.33;100014.00;5045020;28;20113;-72
2021/06/20 08:34:34;;;;;;;6.55;5.50;;;;;;;23.84;50.68;100004.31;5045044;28;20094;-72
2021/06/20 08:37:00;;;;;;;8.82;4.97;;;;;;;24.06;49.81;100013.38;5044945;28;20439;-72
2021/06/20 08:39:26;;;;;;;8.02;4.25;;;;;;;24.27;49.94;99997.75;5044716;28;20026;-71
2021/06/20 08:41:53;;;;;;;7.53;4.32;;;;;;;24.54;48.72;100009.94;5044848;28;20227;-73
2021/06/20 08:44:32;;;;;;;5.55;4.15;;;;;;;24.54;48.51;100011.75;5044997;28;20041;-72
2021/06/20 08:46:59;;;;;;;6.90;4.22;;;;;;;24.28;48.45;100001.25;5043409;28;20021;-72
2021/06/20 08:49:26;;;;;;;6.32;4.30;;;;;;;24.21;49.13;99987.56;5043434;28;20056;-71
2021/06/20 08:51:54;;;;;;;7.43;4.72;;;;;;;24.00;48.97;99962.50;5044780;28;20218;-71
2021/06/20 08:54:20;;;;;;;8.60;4.55;;;;;;;23.86;50.12;99965.28;5026842;28;20065;-70
2021/06/20 08:56:48;;;;;;;5.78;4.22;;;;;;;23.87;49.55;99974.91;5044687;28;20028;-69
2021/06/20 08:59:14;;;;;;;6.85;4.20;;;;;;;23.74;50.15;99973.16;5044656;28;20049;-66
2021/06/20 09:01:40;;;;;;;7.53;4.22;;;;;;;23.81;50.27;99968.28;5026881;28;20017;-66
2021/06/20 09:04:06;;;;;;;5.25;4.00;;;;;;;24.11;49.50;99947.59;5044737;28;20342;-66
2021/06/20 09:06:31;;;;;;;7.88;4.10;;;;;;;24.13;49.32;99951.84;5043328;28;20033;-69
2021/06/20 09:08:59;;;;;;;8.68;3.75;;;;;;;24.28;49.96;99953.50;5044555;28;20017;-70
2021/06/20 09:11:31;;;;;;;5.30;3.58;;;;;;;24.67;48.75;99953.28;5044349;28;20064;-68
2021/06/20 09:14:07;;;;;;;7.55;3.58;;;;;;;24.76;48.43;99963.22;5043079;28;20022;-70
2021/06/20 09:16:34;;;;;;;6.70;3.70;;;;;;;24.76;48.40;99948.13;5044414;28;20035;-74
2021/06/20 09:19:00;;;;;;;5.85;3.38;;;;;;;25.07;48.11;99934.34;5044368;28;20021;-71
2021/06/20 09:21:26;;;;;;;7.50;3.47;;;;;;;25.15;47.26;99928.44;5044239;28;20025;-71
2021/06/20 09:23:58;;;;;;;5.57;3.30;;;;;;;25.15;47.72;99922.25;5044203;28;20128;-74
2021/06/20 09:26:38;;;;;;;6.10;4.05;;;;;;;25.31;47.79;99925.41;5044189;28;20029;-68
2021/06/20 09:29:05;;;;;;;5.15;3.60;;;;;;;25.41;47.41;99908.75;5044597;28;20033;-71
2021/06/20 09:31:47;;;;;;;9.10;3.78;;;;;;;25.56;47.24;99918.16;5043003;28;20025;-70
2021/06/20 09:34:13;;;;;;;;;;;;;;;25.69;47.31;99926.00;5026853;28;20026;-66
2021/06/20 09:36:39;;;;;;;6.03;3.25;;;;;;;25.76;45.87;99930.84;5026226;28;19936;-66
2021/06/20 09:39:16;;;;;;;4.00;2.83;;;;;;;25.69;44.73;99918.03;5042304;28;20025;-68
2021/06/20 09:41:43;;;;;;;7.25;2.95;;;;;;;25.46;45.14;99918.03;5043600;28;20025;-69
2021/06/20 09:44:08;;;;;;;5.70;3.13;;;;;;;25.40;45.92;99907.88;5043843;28;20024;-63
2021/06/20 09:46:34;;;;;;;6.38;3.53;;;;;;;25.57;45.97;99908.38;5044108;28;20025;-63
2021/06/20 09:48:59;;;;;;;4.97;3.20;;;;;;;25.42;45.90;99892.69;5042568;28;20060;-64
2021/06/20 09:51:30;;;;;;;5.00;3.33;;;;;;;25.10;46.45;99890.75;5043843;28;20021;-63
2021/06/20 09:53:55;;;;;;;4.75;3.45;;;;;;;24.98;47.40;99877.50;5042642;28;20029;-64
2021/06/20 09:56:29;;;;;;;5.07;3.63;;;;;;;24.95;46.78;99872.41;5025770;28;20021;-63
2021/06/20 09:59:04;;;;;;;4.68;3.58;;;;;;;24.77;46.21;99856.09;5043469;28;20053;-64
2021/06/20 10:01:32;;;;;;;6.05;3.30;;;;;;;24.54;47.28;99836.63;5043725;28;20022;-68
2021/06/20 10:03:58;;;;;;;5.25;3.63;;;;;;;24.57;47.68;99829.25;5043788;28;20049;-64
2021/06/20 10:06:24;;;;;;;6.93;3.50;;;;;;;24.69;48.03;99811.56;5043662;28;20049;-63
2021/06/20 10:08:49;;;;;;;5.22;3.88;;;;;;;24.64;48.27;99808.41;5043605;28;20037;-63
2021/06/20 10:11:17;;;;;;;4.50;3.28;;;;;;;24.60;48.09;99799.03;5043574;28;20055;-63
2021/06/20 10:13:42;;;;;;;4.32;3.03;;;;;;;24.46;48.56;99785.00;5043673;28;20030;-64
2021/06/20 10:16:26;;;;;;;6.70;3.47;;;;;;;24.45;49.01;99766.53;5043635;28;20049;-64
2021/06/20 10:18:52;;;;;;;5.32;3.55;;;;;;;24.50;49.04;99751.97;5025343;28;20052;-64
2021/06/20 10:21:35;;;;;;;7.60;3.63;;;;;;;24.53;49.05;99744.72;5043347;28;20022;-64
2021/06/20 10:24:30;;;;;;;6.28;3.67;;;;;;;24.67;49.21;99736.53;5042872;28;20076;-63
2021/06/20 10:26:58;;;;;;;6.50;3.65;;;;;;;24.76;48.99;99746.41;5033920;28;20033;-63
2021/06/20 10:29:32;;;;;;;4.50;3.15;;;;;;;25.11;48.49;99741.91;5041997;28;20030;-63
2021/06/20 10:31:59;;;;;;;3.95;3.13;;;;;;;25.35;46.98;99729.44;5043317;28;20021;-67
2021/06/20 10:34:31;;;;;;;3.90;2.97;;;;;;;25.44;47.01;99720.72;5043489;28;20018;-65
2021/06/20 10:37:05;;;;;;;4.40;3.15;;;;;;;25.57;46.89;99730.31;5025463;28;20021;-65
2021/06/20 10:39:31;;;;;;;4.78;3.17;;;;;;;25.66;46.59;99737.56;5043174;28;20034;-64
2021/06/20 10:42:07;;;;;;;5.78;3.00;;;;;;;25.74;45.75;99728.94;5043214;28;20022;-65
2021/06/20 10:44:52;;;;;;;3.13;2.72;;;;;;;25.87;46.01;99720.78;5043194;28;20033;-63
2021/06/20 10:47:41;;;;;;;4.22;3.17;;;;;;;25.95;45.39;99726.28;5043353;28;20021;-65
2021/06/20 10:50:09;;;;;;;4.63;3.00;;;;;;;26.16;45.12;99733.44;5025246;28;20029;-76
2021/06/20 10:52:35;;;;;;;4.72;2.90;;;;;;;26.45;44.34;99738.09;5043114;28;20117;-73
2021/06/20 10:55:12;;;;;;;5.25;3.08;;;;;;;26.55;43.38;99735.44;5046193;28;20421;-73
2021/06/20 10:57:46;;;;;;;3.72;2.90;;;;;;;26.27;43.97;99719.19;5046639;28;20400;-74
2021/06/20 11:00:23;;;;;;;4.53;2.50;;;;;;;26.04;44.10;99708.69;5047007;28;20033;-74
2021/06/20 11:02:49;;;;;;;3.25;2.85;;;;;;;25.80;44.49;99709.81;5047122;28;20026;-73
2021/06/20 11:05:24;;;;;;;4.80;2.90;;;;;;;25.80;45.12;99707.16;5046915;28;20056;-75
2021/06/20 11:08:01;;;;;;;4.38;2.97;;;;;;;25.86;44.93;99697.84;5047024;28;20029;-76
2021/06/20 11:10:27;;;;;;;4.38;2.92;;;;;;;25.92;45.08;99688.47;5046497;28;20026;-75
2021/06/20 11:12:56;;;;;;;4.38;3.17;;;;;;;26.02;45.36;99686.75;5046747;28;20075;-73
2021/06/20 11:15:26;;;;;;;6.05;3.28;;;;;;;25.93;45.45;99684.84;5028990;28;20072;-76
2021/06/20 11:17:52;;;;;;;5.32;3.30;;;;;;;25.88;44.95;99701.19;5046709;28;20021;-76
2021/06/20 11:20:17;;;;;;;4.68;3.30;;;;;;;25.74;45.49;99687.25;5046856;28;20380;-76
2021/06/20 11:22:42;;;;;;;4.32;3.10;;;;;;;25.79;46.39;99704.63;5028844;28;20044;-78